createdAt,value
2019-02-28T00:02:29.685Z,5.90
2019-02-28T00:05:00.388Z,5.90
2019-02-28T00:07:31.109Z,5.90
2019-02-28T00:10:01.435Z,5.80
2019-02-28T00:12:32.434Z,5.80
2019-02-28T00:15:03.096Z,5.70
2019-02-28T00:17:33.450Z,5.70
2019-02-28T00:20:05.004Z,5.60
2019-02-28T00:22:35.404Z,5.50
2019-02-28T00:25:08.935Z,5.60
2019-02-28T00:27:39.931Z,5.60
2019-02-28T00:30:17.045Z,5.60
2019-02-28T00:32:47.897Z,5.60
2019-02-28T00:35:18.812Z,5.60
2019-02-28T00:37:49.222Z,5.50
2019-02-28T00:40:19.874Z,5.60
2019-02-28T00:42:50.726Z,5.60
2019-02-28T00:45:22.589Z,5.60
2019-02-28T00:47:53.239Z,5.60
2019-02-28T00:50:27.592Z,5.60
2019-02-28T00:52:58.984Z,5.60
2019-02-28T00:55:29.637Z,5.50
2019-02-28T00:57:59.965Z,5.50
2019-02-28T01:00:30.595Z,5.50
2019-02-28T01:03:01.072Z,5.60
2019-02-28T01:05:31.689Z,5.60
2019-02-28T01:08:02.438Z,5.60
2019-02-28T01:10:39.304Z,5.60
2019-02-28T01:13:09.363Z,5.60
2019-02-28T01:15:44.488Z,5.60
2019-02-28T01:18:11.981Z,5.60
2019-02-28T01:20:42.937Z,5.60
2019-02-28T01:23:13.480Z,5.60
2019-02-28T01:25:44.082Z,5.50
2019-02-28T01:28:14.785Z,5.50
2019-02-28T01:30:45.165Z,5.50
2019-02-28T01:33:15.820Z,5.50
2019-02-28T01:35:46.148Z,5.50
2019-02-28T01:38:16.694Z,5.50
2019-02-28T01:40:47.024Z,5.50
2019-02-28T01:43:17.348Z,5.50
2019-02-28T01:45:47.977Z,5.50
2019-02-28T01:48:18.897Z,5.50
2019-02-28T01:50:49.224Z,5.50
2019-02-28T01:53:19.896Z,5.50
2019-02-28T01:55:50.250Z,5.40
2019-02-28T01:58:20.894Z,5.40
2019-02-28T02:00:53.539Z,5.30
2019-02-28T02:03:24.001Z,5.30
2019-02-28T02:05:54.623Z,5.30
2019-02-28T02:08:25.419Z,5.30
2019-02-28T02:10:56.165Z,5.30
2019-02-28T02:13:26.928Z,5.30
2019-02-28T02:15:57.657Z,5.40
2019-02-28T02:18:28.279Z,5.40
2019-02-28T02:21:00.119Z,5.30
2019-02-28T02:23:31.266Z,5.30
2019-02-28T02:26:01.906Z,5.30
2019-02-28T02:28:33.070Z,5.30
2019-02-28T02:31:03.797Z,5.30
2019-02-28T02:33:34.263Z,5.30
2019-02-28T02:36:04.892Z,5.40
2019-02-28T02:38:40.173Z,5.40
2019-02-28T02:41:07.939Z,5.50
2019-02-28T02:43:38.265Z,5.50
2019-02-28T02:46:08.911Z,5.60
2019-02-28T02:48:42.322Z,5.70
2019-02-28T02:51:12.608Z,5.80
2019-02-28T02:53:43.568Z,5.70
2019-02-28T02:56:14.428Z,5.70
2019-02-28T02:58:45.111Z,5.80
2019-02-28T03:01:15.743Z,5.80
2019-02-28T03:03:46.123Z,5.70
2019-02-28T03:06:16.718Z,5.70
2019-02-28T03:08:47.375Z,5.70
2019-02-28T03:11:17.735Z,5.80
2019-02-28T03:13:48.375Z,5.80
2019-02-28T03:16:19.014Z,5.80
2019-02-28T03:18:56.937Z,5.80
2019-02-28T03:21:22.096Z,5.90
2019-02-28T03:23:52.589Z,5.90
2019-02-28T03:26:23.247Z,6.00
2019-02-28T03:28:53.585Z,6.00
2019-02-28T03:31:24.126Z,6.10
2019-02-28T03:33:54.436Z,6.10
2019-02-28T03:36:24.755Z,6.10
2019-02-28T03:38:55.435Z,6.10
2019-02-28T03:41:26.286Z,6.10
2019-02-28T03:43:56.634Z,6.20
2019-02-28T03:46:26.995Z,6.20
2019-02-28T03:48:57.336Z,6.20
2019-02-28T03:51:28.734Z,6.20
2019-02-28T03:54:00.259Z,6.20
2019-02-28T03:56:30.850Z,6.30
2019-02-28T03:59:01.176Z,6.30
2019-02-28T04:01:31.554Z,6.20
2019-02-28T04:04:01.902Z,6.20
2019-02-28T04:06:32.228Z,6.20
2019-02-28T04:09:08.463Z,6.20
2019-02-28T04:11:35.706Z,6.20
2019-02-28T04:14:06.296Z,6.20
2019-02-28T04:16:36.947Z,6.20
2019-02-28T04:19:07.273Z,6.20
2019-02-28T04:21:37.601Z,6.20
2019-02-28T04:24:12.447Z,6.20
2019-02-28T04:26:40.435Z,6.10
2019-02-28T04:29:10.789Z,6.00
2019-02-28T04:31:41.426Z,6.00
2019-02-28T04:34:13.355Z,6.00
2019-02-28T04:36:44.117Z,6.10
2019-02-28T04:39:14.790Z,6.10
2019-02-28T04:41:45.715Z,6.00
2019-02-28T04:44:18.265Z,6.00
2019-02-28T04:46:48.098Z,5.90
2019-02-28T04:49:21.825Z,5.90
2019-02-28T04:51:50.770Z,5.80
2019-02-28T04:54:24.575Z,5.80
2019-02-28T04:56:53.711Z,5.90
2019-02-28T04:59:24.304Z,5.90
2019-02-28T05:01:55.184Z,5.90
2019-02-28T05:04:25.846Z,5.90
2019-02-28T05:06:56.457Z,5.90
2019-02-28T05:09:27.146Z,5.90
2019-02-28T05:11:57.770Z,5.90
2019-02-28T05:14:28.406Z,5.90
2019-02-28T05:16:59.244Z,6.00
2019-02-28T05:19:35.405Z,6.00
2019-02-28T05:22:01.896Z,6.10
2019-02-28T05:24:32.554Z,6.10
2019-02-28T05:27:03.144Z,6.10
2019-02-28T05:29:33.468Z,6.20
2019-02-28T05:32:03.944Z,6.20
2019-02-28T05:34:34.412Z,6.20
2019-02-28T05:37:04.763Z,6.20
2019-02-28T05:39:35.652Z,6.20
2019-02-28T05:42:06.009Z,6.20
2019-02-28T05:44:37.387Z,6.30
2019-02-28T05:47:10.936Z,6.20
2019-02-28T05:49:41.994Z,6.30
2019-02-28T05:52:12.761Z,6.30
2019-02-28T05:54:43.239Z,6.30
2019-02-28T05:57:13.863Z,6.40
2019-02-28T05:59:44.757Z,6.40
2019-02-28T06:02:15.418Z,6.50
2019-02-28T06:04:46.041Z,6.40
2019-02-28T06:07:16.662Z,6.40
2019-02-28T06:09:48.803Z,6.50
2019-02-28T06:12:19.124Z,6.50
2019-02-28T06:14:49.765Z,6.50
2019-02-28T06:17:20.749Z,6.60
2019-02-28T06:19:52.532Z,6.60
2019-02-28T06:22:23.009Z,6.60
2019-02-28T06:24:53.415Z,6.60
2019-02-28T06:27:24.352Z,6.60
2019-02-28T06:29:54.905Z,6.60
2019-02-28T06:32:27.405Z,6.70
2019-02-28T06:34:57.742Z,6.80
2019-02-28T06:37:28.740Z,6.90
2019-02-28T06:39:59.375Z,7.00
2019-02-28T06:42:29.872Z,7.10
2019-02-28T06:45:02.648Z,7.20
2019-02-28T06:47:32.528Z,7.20
2019-02-28T06:50:03.476Z,7.30
2019-02-28T06:52:34.402Z,7.40
2019-02-28T06:55:12.598Z,7.40
2019-02-28T06:57:42.382Z,7.50
2019-02-28T07:00:15.585Z,7.50
2019-02-28T07:02:46.216Z,7.50
2019-02-28T07:05:16.812Z,7.60
2019-02-28T07:07:49.088Z,7.60
2019-02-28T07:10:19.572Z,7.70
2019-02-28T07:12:50.223Z,7.70
2019-02-28T07:15:24.802Z,7.80
2019-02-28T07:17:52.880Z,7.80
2019-02-28T07:20:23.500Z,7.80
2019-02-28T07:22:55.526Z,7.90
2019-02-28T07:25:26.481Z,7.90
2019-02-28T07:27:57.129Z,8.00
2019-02-28T07:30:27.859Z,8.00
2019-02-28T07:32:59.140Z,8.00
2019-02-28T07:35:33.196Z,8.10
2019-02-28T07:38:01.499Z,8.10
2019-02-28T07:40:33.292Z,8.10
2019-02-28T07:43:03.638Z,8.20
2019-02-28T07:45:34.235Z,8.20
2019-02-28T07:48:04.981Z,8.30
2019-02-28T07:50:35.329Z,8.30
2019-02-28T07:53:08.824Z,8.40
2019-02-28T07:55:38.057Z,8.40
2019-02-28T07:58:08.803Z,8.40
2019-02-28T08:00:39.177Z,8.50
2019-02-28T08:03:11.336Z,8.50
2019-02-28T08:05:41.617Z,8.60
2019-02-28T08:08:12.280Z,8.60
2019-02-28T08:10:42.651Z,8.70
2019-02-28T08:13:13.587Z,8.70
2019-02-28T08:15:43.951Z,8.90
2019-02-28T08:18:15.828Z,8.90
2019-02-28T08:20:46.398Z,8.90
2019-02-28T08:23:16.926Z,8.90
2019-02-28T08:25:47.699Z,9.00
2019-02-28T08:28:18.445Z,9.00
2019-02-28T08:30:54.724Z,9.00
2019-02-28T08:33:20.872Z,9.10
2019-02-28T08:35:51.231Z,9.10
2019-02-28T08:38:21.616Z,9.10
2019-02-28T08:40:52.547Z,9.20
2019-02-28T08:43:27.227Z,9.30
2019-02-28T08:45:55.960Z,9.30
2019-02-28T08:48:31.396Z,9.40
2019-02-28T08:50:58.681Z,9.40
2019-02-28T08:53:29.377Z,9.40
2019-02-28T08:55:59.747Z,9.50
2019-02-28T08:58:30.107Z,9.60
2019-02-28T09:01:00.746Z,9.60
2019-02-28T09:03:31.110Z,9.70
2019-02-28T09:06:03.803Z,9.70
2019-02-28T09:08:33.980Z,9.70
2019-02-28T09:11:04.584Z,9.80
2019-02-28T09:13:34.944Z,9.90
2019-02-28T09:16:05.622Z,9.90
2019-02-28T09:18:35.980Z,10.10
2019-02-28T09:21:06.327Z,10.20
2019-02-28T09:23:37.728Z,10.30
2019-02-28T09:26:09.068Z,10.50
2019-02-28T09:28:39.448Z,10.60
2019-02-28T09:31:10.240Z,10.60
2019-02-28T09:33:40.762Z,10.70
2019-02-28T09:36:11.109Z,10.90
2019-02-28T09:38:42.266Z,11.00
2019-02-28T09:41:14.146Z,11.00
2019-02-28T09:43:44.515Z,11.10
2019-02-28T09:46:15.551Z,11.10
2019-02-28T09:48:46.736Z,11.10
2019-02-28T09:51:17.105Z,11.10
2019-02-28T09:53:50.276Z,11.10
2019-02-28T09:56:19.827Z,11.10
2019-02-28T09:58:50.199Z,11.20
2019-02-28T10:01:21.226Z,11.20
2019-02-28T10:03:55.333Z,11.30
2019-02-28T10:06:24.956Z,11.50
2019-02-28T10:08:55.591Z,11.50
2019-02-28T10:11:31.516Z,11.50
2019-02-28T10:13:58.293Z,11.70
2019-02-28T10:16:28.679Z,11.70
2019-02-28T10:18:59.026Z,11.70
2019-02-28T10:21:29.373Z,11.80
2019-02-28T10:23:59.759Z,11.90
2019-02-28T10:26:30.367Z,12.00
2019-02-28T10:29:01.292Z,12.10
2019-02-28T10:31:38.080Z,12.10
2019-02-28T10:34:03.758Z,12.10
2019-02-28T10:36:34.508Z,12.10
2019-02-28T10:39:09.056Z,12.10
2019-02-28T10:41:38.749Z,12.30
2019-02-28T10:44:09.387Z,12.40
2019-02-28T10:46:39.771Z,12.50
2019-02-28T10:49:10.146Z,12.60
2019-02-28T10:51:40.757Z,12.60
2019-02-28T10:54:14.325Z,12.50
2019-02-28T10:56:43.187Z,12.60
2019-02-28T10:59:14.083Z,12.80
2019-02-28T11:01:44.479Z,12.90
2019-02-28T11:04:15.088Z,12.80
2019-02-28T11:06:46.853Z,12.80
2019-02-28T11:09:21.738Z,12.80
2019-02-28T11:11:51.405Z,12.70
2019-02-28T11:14:23.644Z,12.70
2019-02-28T11:16:58.944Z,12.70
2019-02-28T11:19:26.823Z,12.70
2019-02-28T11:21:57.187Z,12.80
2019-02-28T11:24:27.935Z,12.70
2019-02-28T11:26:58.306Z,12.80
2019-02-28T11:29:28.942Z,12.80
2019-02-28T11:31:59.582Z,12.80
2019-02-28T11:34:29.924Z,12.80
2019-02-28T11:37:00.399Z,12.80
2019-02-28T11:39:33.648Z,12.90
2019-02-28T11:42:02.894Z,12.90
2019-02-28T11:44:33.240Z,13.00
2019-02-28T11:47:03.657Z,13.00
2019-02-28T11:49:34.000Z,13.10
2019-02-28T11:52:04.386Z,13.20
2019-02-28T11:54:34.759Z,13.20
2019-02-28T11:57:06.845Z,13.00
2019-02-28T11:59:37.515Z,12.90
2019-02-28T12:02:07.971Z,12.90
2019-02-28T12:04:40.423Z,12.70
2019-02-28T12:07:10.618Z,12.70
2019-02-28T12:09:41.160Z,12.80
2019-02-28T12:12:11.798Z,12.80
2019-02-28T12:14:42.513Z,12.80
2019-02-28T12:17:15.068Z,12.70
2019-02-28T12:19:47.575Z,12.70
2019-02-28T12:22:17.593Z,12.70
2019-02-28T12:24:48.529Z,12.80
2019-02-28T12:27:19.189Z,12.90
2019-02-28T12:29:50.037Z,12.90
2019-02-28T12:32:20.435Z,13.10
2019-02-28T12:34:51.088Z,13.10
2019-02-28T12:37:22.262Z,13.20
2019-02-28T12:39:53.749Z,13.30
2019-02-28T12:42:24.359Z,13.40
2019-02-28T12:44:55.014Z,13.50
2019-02-28T12:47:28.918Z,13.60
2019-02-28T12:49:59.353Z,13.80
2019-02-28T12:52:30.002Z,13.90
2019-02-28T12:55:00.442Z,14.10
2019-02-28T12:57:30.786Z,14.10
2019-02-28T13:00:01.436Z,14.00
2019-02-28T13:02:32.350Z,13.90
2019-02-28T13:05:02.969Z,13.80
2019-02-28T13:07:33.899Z,13.70
2019-02-28T13:10:09.278Z,13.80
2019-02-28T13:12:40.311Z,13.80
2019-02-28T13:15:13.943Z,13.90
2019-02-28T13:17:44.628Z,14.00
2019-02-28T13:20:22.123Z,13.90
2019-02-28T13:22:55.609Z,13.80
2019-02-28T13:25:24.953Z,13.80
2019-02-28T13:30:26.525Z,13.80
2019-02-28T13:32:57.273Z,13.60
2019-02-28T13:35:33.901Z,13.70
2019-02-28T13:38:04.274Z,13.70
2019-02-28T13:40:34.893Z,13.80
2019-02-28T13:43:05.872Z,13.70
2019-02-28T13:45:36.212Z,13.60
2019-02-28T13:48:06.590Z,13.50
2019-02-28T13:50:37.852Z,13.30
2019-02-28T13:53:17.539Z,13.40
2019-02-28T13:55:41.103Z,13.40
2019-02-28T13:58:11.498Z,13.50
2019-02-28T14:00:45.588Z,13.50
2019-02-28T14:03:17.035Z,13.50
2019-02-28T14:05:47.440Z,13.40
2019-02-28T14:08:18.059Z,13.30
2019-02-28T14:10:48.424Z,13.30
2019-02-28T14:13:18.908Z,13.30
2019-02-28T14:15:52.522Z,13.20
2019-02-28T14:18:23.054Z,13.30
2019-02-28T14:20:53.727Z,13.20
2019-02-28T14:23:24.633Z,13.20
2019-02-28T14:25:55.237Z,13.20
2019-02-28T14:28:26.146Z,13.10
2019-02-28T14:30:57.521Z,13.00
2019-02-28T14:33:29.395Z,12.80
2019-02-28T14:36:00.065Z,12.70
2019-02-28T14:38:32.830Z,12.70
2019-02-28T14:41:02.736Z,12.60
2019-02-28T14:43:33.158Z,12.50
2019-02-28T14:46:03.739Z,12.60
2019-02-28T14:48:36.615Z,12.50
2019-02-28T14:51:06.144Z,12.40
2019-02-28T14:53:36.525Z,12.40
2019-02-28T14:56:07.443Z,12.40
2019-02-28T14:58:38.697Z,12.40
2019-02-28T15:01:09.513Z,12.40
2019-02-28T15:03:39.851Z,12.40
2019-02-28T15:06:10.264Z,12.30
2019-02-28T15:08:40.866Z,12.20
2019-02-28T15:11:11.211Z,12.10
2019-02-28T15:13:42.016Z,12.10
2019-02-28T15:16:12.657Z,12.10
2019-02-28T15:18:44.397Z,12.00
2019-02-28T15:21:15.130Z,12.00
2019-02-28T15:23:45.501Z,11.90
2019-02-28T15:26:16.131Z,11.90
2019-02-28T15:28:48.654Z,11.90
2019-02-28T15:31:18.615Z,11.80
2019-02-28T15:33:48.987Z,11.70
2019-02-28T15:36:20.892Z,11.60
2019-02-28T15:38:52.018Z,11.60
2019-02-28T15:41:22.369Z,11.60
2019-02-28T15:43:53.707Z,11.60
2019-02-28T15:46:24.713Z,11.60
2019-02-28T15:48:55.077Z,11.60
2019-02-28T15:51:29.104Z,11.50
2019-02-28T15:53:58.402Z,11.50
2019-02-28T15:56:28.804Z,11.50
2019-02-28T15:58:59.497Z,11.40
2019-02-28T16:01:32.345Z,11.40
2019-02-28T16:04:01.913Z,11.40
2019-02-28T16:06:32.537Z,11.40
2019-02-28T16:09:02.912Z,11.30
2019-02-28T16:11:33.577Z,11.20
2019-02-28T16:14:04.538Z,11.20
2019-02-28T16:16:34.915Z,11.20
2019-02-28T16:19:05.575Z,11.10
2019-02-28T16:21:38.195Z,11.10
2019-02-28T16:24:08.626Z,11.00
2019-02-28T16:26:39.250Z,10.90
2019-02-28T16:29:09.687Z,10.80
2019-02-28T16:31:41.636Z,10.80
2019-02-28T16:34:12.338Z,10.80
2019-02-28T16:36:42.968Z,10.70
2019-02-28T16:39:16.883Z,10.60
2019-02-28T16:41:46.229Z,10.60
2019-02-28T16:44:16.924Z,10.50
2019-02-28T16:46:49.965Z,10.50
2019-02-28T16:49:19.602Z,10.30
2019-02-28T16:51:49.961Z,10.30
2019-02-28T16:54:22.472Z,10.30
2019-02-28T16:56:52.375Z,10.20
2019-02-28T16:59:23.530Z,10.20
2019-02-28T17:01:54.865Z,10.20
2019-02-28T17:04:26.385Z,10.10
2019-02-28T17:06:57.012Z,10.00
2019-02-28T17:09:30.231Z,10.10
2019-02-28T17:12:02.703Z,10.00
2019-02-28T17:14:33.489Z,9.90
2019-02-28T17:17:05.483Z,9.90
2019-02-28T17:19:35.850Z,9.70
2019-02-28T17:22:06.231Z,9.80
2019-02-28T17:24:36.865Z,9.60
2019-02-28T17:27:17.673Z,9.50
2019-02-28T17:29:49.649Z,9.30
2019-02-28T17:32:20.184Z,9.20
2019-02-28T17:34:50.946Z,9.20
2019-02-28T17:37:26.027Z,9.10
2019-02-28T17:39:53.922Z,9.10
2019-02-28T17:42:24.345Z,9.00
2019-02-28T17:44:59.758Z,9.00
2019-02-28T17:47:55.952Z,9.00
2019-02-28T17:50:43.998Z,9.00
2019-02-28T17:53:45.667Z,8.90
2019-02-28T17:56:50.067Z,8.90
2019-02-28T17:59:49.226Z,8.80
2019-02-28T18:02:42.547Z,8.70
2019-02-28T18:05:45.890Z,8.60
2019-02-28T18:08:37.613Z,8.50
2019-02-28T18:11:35.526Z,8.50
2019-02-28T18:14:46.743Z,8.40
2019-02-28T18:18:02.080Z,8.40
2019-02-28T18:21:00.703Z,8.30
2019-02-28T18:24:11.919Z,8.30
2019-02-28T18:27:11.326Z,8.20
2019-02-28T18:30:09.128Z,8.20
2019-02-28T18:32:39.467Z,8.10
2019-02-28T18:35:10.559Z,8.00
2019-02-28T18:37:40.993Z,8.00
2019-02-28T18:40:11.336Z,8.00
2019-02-28T18:42:41.741Z,7.90
2019-02-28T18:45:15.625Z,7.80
2019-02-28T18:47:44.865Z,7.70
2019-02-28T18:50:15.260Z,7.70
2019-02-28T18:52:45.628Z,7.70
2019-02-28T18:55:16.246Z,7.70
2019-02-28T18:57:46.647Z,7.70
2019-02-28T19:00:18.924Z,7.70
2019-02-28T19:02:49.565Z,7.70
2019-02-28T19:05:20.206Z,7.70
2019-02-28T19:07:50.803Z,7.70
2019-02-28T19:10:21.138Z,7.70
2019-02-28T19:12:51.554Z,7.60
2019-02-28T19:15:22.286Z,7.70
2019-02-28T19:17:52.656Z,7.60
2019-02-28T19:20:23.013Z,7.60
2019-02-28T19:22:53.366Z,7.70
2019-02-28T19:25:23.948Z,7.60
2019-02-28T19:27:54.620Z,7.50
2019-02-28T19:30:25.225Z,7.50
2019-02-28T19:32:55.824Z,7.50
2019-02-28T19:35:26.196Z,7.50
2019-02-28T19:37:56.566Z,7.40
2019-02-28T19:40:26.896Z,7.40
2019-02-28T19:42:57.967Z,7.40
2019-02-28T19:45:44.507Z,7.30
2019-02-28T19:48:15.490Z,7.30
2019-02-28T19:50:45.853Z,7.30
2019-02-28T19:53:16.549Z,7.20
2019-02-28T19:55:46.888Z,7.30
2019-02-28T19:58:18.847Z,7.30
2019-02-28T20:00:49.406Z,7.30
2019-02-28T20:03:19.784Z,7.30
2019-02-28T20:05:50.126Z,7.30
2019-02-28T20:08:20.811Z,7.20
2019-02-28T20:10:51.285Z,7.10
2019-02-28T20:13:22.335Z,7.10
2019-02-28T20:15:52.965Z,7.00
2019-02-28T20:18:23.330Z,7.00
2019-02-28T20:20:53.975Z,7.00
2019-02-28T20:23:25.084Z,6.90
2019-02-28T20:25:55.747Z,6.90
2019-02-28T20:28:26.084Z,6.80
2019-02-28T20:30:57.018Z,6.90
2019-02-28T20:33:27.623Z,6.90
2019-02-28T20:35:57.954Z,7.00
2019-02-28T20:38:28.320Z,7.00
2019-02-28T20:40:58.958Z,7.10
2019-02-28T20:43:29.309Z,7.00
2019-02-28T20:45:59.926Z,7.10
2019-02-28T20:48:30.582Z,7.00
2019-02-28T20:51:00.930Z,7.10
2019-02-28T20:53:31.289Z,7.20
2019-02-28T20:56:02.040Z,7.20
2019-02-28T20:58:32.716Z,7.30
2019-02-28T21:01:03.242Z,7.30
2019-02-28T21:03:33.598Z,7.30
2019-02-28T21:06:04.002Z,7.40
2019-02-28T21:08:34.378Z,7.30
2019-02-28T21:11:05.135Z,7.40
2019-02-28T21:13:35.505Z,7.40
2019-02-28T21:16:05.857Z,7.50
2019-02-28T21:18:36.229Z,7.60
2019-02-28T21:21:06.874Z,7.50
2019-02-28T21:23:37.577Z,7.50
2019-02-28T21:26:09.364Z,7.50
2019-02-28T21:28:40.028Z,7.50
2019-02-28T21:31:10.399Z,7.40
2019-02-28T21:33:40.813Z,7.40
2019-02-28T21:36:11.479Z,7.30
2019-02-28T21:38:42.826Z,7.40
2019-02-28T21:41:13.497Z,7.30
2019-02-28T21:43:44.179Z,7.40
2019-02-28T21:46:14.544Z,7.40
2019-02-28T21:48:44.915Z,7.30
2019-02-28T21:51:15.260Z,7.30
2019-02-28T21:53:45.672Z,7.30
2019-02-28T21:56:16.033Z,7.30
2019-02-28T21:58:46.370Z,7.40
2019-02-28T22:01:16.793Z,7.40
2019-02-28T22:03:47.453Z,7.40
2019-02-28T22:06:19.415Z,7.50
2019-02-28T22:08:49.837Z,7.40
2019-02-28T22:11:20.441Z,7.40
2019-02-28T22:13:51.108Z,7.40
2019-02-28T22:16:21.442Z,7.40
2019-02-28T22:18:51.932Z,7.40
2019-02-28T22:21:22.360Z,7.20
2019-02-28T22:23:53.260Z,7.20
2019-02-28T22:26:23.920Z,7.20
2019-02-28T22:28:54.269Z,7.10
2019-02-28T22:31:39.006Z,7.00
2019-02-28T22:34:11.013Z,7.00
2019-02-28T22:36:42.128Z,6.90
2019-02-28T22:39:12.471Z,6.90
2019-02-28T22:41:43.172Z,6.90
2019-02-28T22:44:13.852Z,6.90
2019-02-28T22:46:44.459Z,6.90
2019-02-28T22:49:15.057Z,6.90
2019-02-28T22:51:45.484Z,6.80
2019-02-28T22:54:15.995Z,6.80
2019-02-28T22:56:46.674Z,6.80
2019-02-28T22:59:17.026Z,6.80
2019-02-28T23:01:47.378Z,6.80
2019-02-28T23:04:17.991Z,6.90
2019-02-28T23:06:48.352Z,6.80
2019-02-28T23:09:19.075Z,6.80
2019-02-28T23:11:49.383Z,6.70
2019-02-28T23:14:20.005Z,6.70
2019-02-28T23:16:50.922Z,6.70
2019-02-28T23:19:21.880Z,6.60
2019-02-28T23:21:52.503Z,6.50
2019-02-28T23:24:22.840Z,6.40
2019-02-28T23:27:14.716Z,6.40
2019-02-28T23:29:52.903Z,6.40
2019-02-28T23:32:30.936Z,6.30
2019-02-28T23:35:01.266Z,6.30
2019-02-28T23:37:31.897Z,6.30
2019-02-28T23:40:02.221Z,6.20
2019-02-28T23:42:32.883Z,6.20
2019-02-28T23:45:03.588Z,6.10
2019-02-28T23:47:34.195Z,6.00
2019-02-28T23:50:08.931Z,5.90
2019-02-28T23:52:39.614Z,5.80
2019-02-28T23:55:10.610Z,5.70
2019-02-28T23:57:40.976Z,5.70
